Time;durP1;ratioP1;P1;durP2;ratioP2;P2;SDS_P1;SDS_P2;PMS_P1;PMS_P2;Temp;Humidity;BMP_temperature;BMP_pressure;BME280_temperature;BME280_humidity;BME280_pressure;Samples;Min_cycle;Max_cycle;Signal;HPM_P1;HPM_P2
2022/12/17 13:08:01;;;;;;;17.27;10.05;;;;;;;17.39;100.00;99745.31;5070497;28;20391;-67
2022/12/17 13:10:30;;;;;;;17.38;9.38;;;;;;;17.36;100.00;99750.66;5052090;28;20385;-67
2022/12/17 13:12:59;;;;;;;19.27;9.68;;;;;;;16.88;100.00;99682.41;5069917;28;20571;-67
2022/12/17 13:15:35;;;;;;;18.20;10.25;;;;;;;17.27;100.00;99759.72;5069768;28;20072;-68
2022/12/17 13:18:26;;;;;;;17.48;10.38;;;;;;;17.31;100.00;99760.38;5069872;28;20406;-67
2022/12/17 13:21:02;;;;;;;19.55;9.32;;;;;;;16.85;100.00;99718.56;5070012;28;20044;-68
2022/12/17 13:23:38;;;;;;;17.23;9.88;;;;;;;16.63;100.00;99681.38;5069955;28;20116;-67
2022/12/17 13:26:14;;;;;;;16.48;11.43;;;;;;;17.00;100.00;99778.47;5070063;28;20039;-67
2022/12/17 13:28:41;;;;;;;20.60;12.02;;;;;;;16.53;100.00;99711.03;5070205;28;20033;-66
2022/12/17 13:31:24;;;;;;;18.55;12.10;;;;;;;16.40;100.00;99713.44;5070127;28;20071;-67
2022/12/17 13:34:01;;;;;;;21.35;12.90;;;;;;;16.75;100.00;99781.63;5069853;28;20064;-68
2022/12/17 13:36:40;;;;;;;17.40;12.48;;;;;;;16.78;100.00;99783.19;5069964;28;20110;-68
2022/12/17 13:39:40;;;;;;;16.92;13.15;;;;;;;16.40;100.00;99701.44;5069521;28;20115;-67
2022/12/17 13:42:17;;;;;;;20.85;11.80;;;;;;;16.40;100.00;99716.81;5070046;28;20119;-68
2022/12/17 13:44:46;;;;;;;17.80;12.15;;;;;;;16.28;100.00;99722.63;5070398;28;20376;-68
2022/12/17 13:47:33;;;;;;;19.10;11.30;;;;;;;16.63;100.00;99790.00;5069728;28;20507;-68
2022/12/17 13:50:01;;;;;;;16.20;13.45;;;;;;;17.15;100.00;99778.41;5051593;28;20071;-69
2022/12/17 13:52:28;;;;;;;19.30;14.07;;;;;;;16.11;100.00;99680.88;5051575;28;20063;-69
2022/12/17 13:55:04;;;;;;;20.92;15.55;;;;;;;16.17;100.00;99701.06;5069600;28;20459;-68
2022/12/17 13:57:30;;;;;;;21.45;14.77;;;;;;;15.95;100.00;99675.75;5069759;28;20040;-68
2022/12/17 13:59:58;;;;;;;26.77;17.48;;;;;;;16.07;100.00;99711.00;5074039;28;20446;-68
2022/12/17 14:02:28;;;;;;;29.27;19.98;;;;;;;16.60;100.00;99782.47;5073798;28;20094;-69
2022/12/17 14:04:56;;;;;;;36.88;24.40;;;;;;;16.39;100.00;99791.31;5073437;28;20031;-69
2022/12/17 14:07:23;;;;;;;36.05;26.30;;;;;;;15.77;100.00;99720.34;5073350;28;20029;-69
2022/12/17 14:09:49;;;;;;;69.07;50.00;;;;;;;15.40;100.00;99631.75;5072939;28;20086;-68
2022/12/17 14:12:20;;;;;;;93.75;53.13;;;;;;;16.54;100.00;99780.25;5072962;28;20024;-68
2022/12/17 14:14:47;;;;;;;;;;;;;;;16.26;100.00;99787.78;5073609;28;20025;-68
2022/12/17 14:17:22;;;;;;;69.40;42.47;;;;;;;15.73;100.00;99705.22;5055070;28;19912;-68
2022/12/17 14:19:55;;;;;;;32.45;21.38;;;;;;;15.87;100.00;99712.97;5073085;28;20481;-69
2022/12/17 14:22:34;;;;;;;27.65;18.85;;;;;;;15.74;100.00;99735.06;5054957;28;20406;-68
2022/12/17 14:25:00;;;;;;;30.08;19.73;;;;;;;15.79;100.00;99784.34;5072921;28;20542;-68
2022/12/17 14:27:31;;;;;;;26.42;19.40;;;;;;;16.02;100.00;99807.06;5073523;28;20032;-68
2022/12/17 14:29:57;;;;;;;29.17;17.75;;;;;;;15.17;100.00;99665.41;5073165;28;20115;-68
2022/12/17 14:32:34;;;;;;;26.00;15.95;;;;;;;15.49;100.00;99738.06;5072735;28;20024;-68
2022/12/17 14:35:01;;;;;;;28.15;20.80;;;;;;;15.81;100.00;99814.13;5072608;28;20025;-69
2022/12/17 14:37:27;;;;;;;46.67;32.10;;;;;;;15.19;100.00;99744.75;5072882;28;20033;-69
2022/12/17 14:39:59;;;;;;;69.68;46.58;;;;;;;15.08;100.00;99752.97;5054464;28;20040;-68
2022/12/17 14:42:25;;;;;;;45.92;34.63;;;;;;;15.46;100.00;99849.25;5072613;28;20040;-69
2022/12/17 14:44:53;;;;;;;43.08;34.42;;;;;;;15.32;100.00;99867.00;5054505;28;20039;-68
2022/12/17 14:47:31;;;;;;;39.65;30.77;;;;;;;15.15;100.00;99848.25;5054889;28;20060;-68
2022/12/17 14:49:59;;;;;;;46.35;32.08;;;;;;;15.30;100.00;99870.53;5072643;28;20513;-68
2022/12/17 14:52:45;;;;;;;43.15;34.42;;;;;;;15.08;100.00;99869.91;5054574;28;20033;-68
2022/12/17 14:55:31;;;;;;;47.95;32.88;;;;;;;14.85;100.00;99849.69;5072649;28;20024;-68
2022/12/17 14:58:12;;;;;;;50.00;34.17;;;;;;;14.92;100.00;99864.69;5072042;28;20028;-68
2022/12/17 15:00:43;;;;;;;76.82;45.58;;;;;;;14.76;100.00;99817.69;5072573;28;20033;-68
2022/12/17 15:03:15;;;;;;;59.08;36.88;;;;;;;14.77;100.00;99868.00;5049804;28;20086;-69
2022/12/17 15:05:41;;;;;;;47.65;33.75;;;;;;;14.25;100.00;99807.28;5073083;28;20047;-69
2022/12/17 15:08:06;;;;;;;45.42;36.92;;;;;;;14.06;100.00;99793.69;5072312;28;20435;-68
2022/12/17 15:10:31;;;;;;;58.30;44.35;;;;;;;14.32;100.00;99858.13;5052934;28;20086;-68
2022/12/17 15:12:57;;;;;;;56.80;44.72;;;;;;;14.35;100.00;99885.28;5072187;28;20316;-68
2022/12/17 15:15:22;;;;;;;64.57;56.20;;;;;;;13.59;100.00;99758.28;5072132;28;20033;-68
2022/12/17 15:17:48;;;;;;;59.85;47.63;;;;;;;14.17;100.00;99897.13;5072243;28;20032;-70
2022/12/17 15:20:19;;;;;;;60.63;50.22;;;;;;;14.34;100.00;99911.78;5071731;28;20090;-68
2022/12/17 15:22:45;;;;;;;64.20;51.03;;;;;;;13.78;100.00;99800.03;5065372;28;20654;-68
2022/12/17 15:25:17;;;;;;;54.58;43.53;;;;;;;14.02;100.00;99913.16;5071553;28;20044;-69
2022/12/17 15:27:42;;;;;;;;;;;;;;;13.63;100.00;99843.28;5072272;28;20028;-69
2022/12/17 15:30:17;;;;;;;75.32;60.13;;;;;;;13.71;100.00;99833.56;5065074;28;19917;-70
2022/12/17 15:32:44;;;;;;;76.00;57.67;;;;;;;13.68;100.00;99819.22;5038016;28;20381;-74
2022/12/17 15:35:10;;;;;;;58.55;49.35;;;;;;;13.51;100.00;99810.63;5070811;28;20063;-70
2022/12/17 15:37:36;;;;;;;105.03;86.25;;;;;;;13.32;100.00;99759.50;5075534;28;20032;-71
2022/12/17 15:40:03;;;;;;;122.93;98.95;;;;;;;14.16;100.00;99877.59;5081162;28;20118;-70
2022/12/17 15:45:12;;;;;;;112.55;87.88;;;;;;;13.54;100.00;99825.81;5092353;28;20034;-70
2022/12/17 15:47:38;;;;;;;112.43;91.55;;;;;;;14.02;100.00;99909.75;5092080;28;20036;-71
2022/12/17 15:50:04;;;;;;;113.88;87.70;;;;;;;12.87;100.00;99736.72;5091677;28;20024;-71
2022/12/17 15:52:29;;;;;;;78.28;52.78;;;;;;;13.59;100.00;99909.00;5090807;28;20088;-71
2022/12/17 15:54:55;;;;;;;63.05;42.03;;;;;;;13.32;100.00;99884.59;5092151;28;20028;-72
2022/12/17 15:57:20;;;;;;;58.33;39.38;;;;;;;13.34;100.00;99910.91;5064716;28;20024;-70
2022/12/17 15:59:46;;;;;;;65.20;38.65;;;;;;;12.84;100.00;99854.19;5066966;28;20070;-70
2022/12/17 16:02:12;;;;;;;64.10;38.53;;;;;;;13.20;100.00;99925.94;5071630;28;20434;-71
2022/12/17 16:04:37;;;;;;;77.75;49.65;;;;;;;13.03;100.00;99949.56;5071337;28;20056;-70
2022/12/17 16:07:05;;;;;;;74.93;46.17;;;;;;;11.88;100.00;99779.72;5071555;28;20040;-71
2022/12/17 16:09:30;;;;;;;70.50;41.92;;;;;;;12.68;100.00;99916.03;5052721;28;20071;-70
2022/12/17 16:11:56;;;;;;;68.65;41.15;;;;;;;12.00;100.00;99831.91;5058696;28;20475;-70
2022/12/17 16:14:22;;;;;;;66.80;40.50;;;;;;;12.12;100.00;99836.56;5052779;28;20029;-71
2022/12/17 16:16:48;;;;;;;71.20;42.38;;;;;;;12.66;100.00;99921.19;5033333;28;20072;-71
2022/12/17 16:19:14;;;;;;;77.53;47.47;;;;;;;12.67;100.00;99909.28;5062534;28;20169;-71
2022/12/17 16:21:39;;;;;;;76.07;46.03;;;;;;;12.57;100.00;99874.81;5069204;28;20479;-70
2022/12/17 16:24:05;;;;;;;75.60;44.20;;;;;;;12.57;100.00;99874.81;5071796;28;20020;-70
2022/12/17 16:26:30;;;;;;;90.75;51.22;;;;;;;12.11;100.00;99805.16;5057366;28;20126;-71
2022/12/17 16:28:57;;;;;;;79.45;44.20;;;;;;;11.93;100.00;99797.34;5070800;28;20055;-71
2022/12/17 16:31:23;;;;;;;70.05;41.10;;;;;;;12.44;100.00;99892.28;5071267;28;20051;-71
2022/12/17 16:33:48;;;;;;;72.00;42.03;;;;;;;11.85;100.00;99807.81;5071088;28;20037;-73
2022/12/17 16:36:16;;;;;;;111.93;58.05;;;;;;;12.30;100.00;99907.25;5072122;28;20097;-73
2022/12/17 16:38:50;;;;;;;137.98;74.35;;;;;;;12.44;100.00;99915.22;5071721;28;20040;-73
2022/12/17 16:41:16;;;;;;;103.00;55.97;;;;;;;11.63;100.00;99823.88;5053418;28;20068;-72
2022/12/17 16:43:43;;;;;;;85.30;44.45;;;;;;;11.82;100.00;99841.06;5071191;28;20050;-71
2022/12/17 16:46:31;;;;;;;85.30;45.55;;;;;;;12.29;100.00;99937.91;5052548;28;20510;-71
2022/12/17 16:49:04;;;;;;;79.68;47.80;;;;;;;12.23;100.00;99951.69;5071803;28;20116;-71
2022/12/17 16:51:30;;;;;;;81.28;50.83;;;;;;;11.18;100.00;99798.28;5071017;28;20043;-71
2022/12/17 16:53:57;;;;;;;77.57;44.33;;;;;;;12.00;100.00;99967.75;5070628;28;20032;-70
2022/12/17 16:56:26;;;;;;;83.60;50.97;;;;;;;11.42;100.00;99895.88;5070293;28;20507;-70
2022/12/17 16:58:53;;;;;;;85.18;47.80;;;;;;;11.92;100.00;99990.13;5070462;28;20031;-69
2022/12/17 17:01:21;;;;;;;89.40;48.10;;;;;;;11.91;100.00;99967.25;5070756;28;20044;-71
2022/12/17 17:03:47;;;;;;;84.72;48.92;;;;;;;11.82;100.00;99970.94;5078992;28;20163;-69
2022/12/17 17:06:13;;;;;;;82.35;43.90;;;;;;;11.44;100.00;99911.94;5091012;28;20036;-70
2022/12/17 17:08:39;;;;;;;83.18;41.88;;;;;;;11.29;100.00;99905.63;5090991;28;20032;-71
2022/12/17 17:11:18;;;;;;;75.50;40.33;;;;;;;11.37;100.00;99911.28;5080114;28;20035;-71
2022/12/17 17:13:43;;;;;;;77.97;45.47;;;;;;;11.23;100.00;99895.66;5066323;28;20041;-70
2022/12/17 17:16:09;;;;;;;71.72;38.55;;;;;;;11.73;100.00;99940.69;5065640;28;20047;-69
2022/12/17 17:18:36;;;;;;;75.90;39.78;;;;;;;11.15;100.00;99935.78;5048127;28;20032;-70
2022/12/17 17:21:22;;;;;;;69.85;39.05;;;;;;;11.45;100.00;100026.44;5070038;28;20036;-70
2022/12/17 17:23:52;;;;;;;68.88;37.83;;;;;;;11.00;100.00;99921.81;5069463;28;20028;-70
2022/12/17 17:26:18;;;;;;;71.38;37.90;;;;;;;11.08;100.00;99942.75;5070194;28;20469;-71
2022/12/17 17:28:45;;;;;;;69.88;38.92;;;;;;;10.38;100.00;99866.91;5070287;28;20029;-71
2022/12/17 17:31:12;;;;;;;67.57;38.55;;;;;;;11.16;100.00;100013.75;5051986;28;20051;-70
2022/12/17 17:33:42;;;;;;;74.00;42.50;;;;;;;11.32;100.00;100081.97;5072621;28;20064;-70
2022/12/17 17:36:28;;;;;;;69.80;41.47;;;;;;;11.15;100.00;100088.44;5056299;28;20032;-70
2022/12/17 17:38:57;;;;;;;67.47;41.47;;;;;;;10.77;100.00;99964.91;5073830;28;20068;-69
2022/12/17 17:41:26;;;;;;;66.45;38.92;;;;;;;11.27;100.00;100037.16;5074414;28;20039;-70
2022/12/17 17:43:57;;;;;;;74.20;40.55;;;;;;;11.27;100.00;100024.44;5073443;28;20123;-71
2022/12/17 17:46:22;;;;;;;66.63;38.28;;;;;;;11.36;100.00;100026.72;5074323;28;20060;-70
2022/12/17 17:48:48;;;;;;;60.38;37.13;;;;;;;11.32;100.00;100014.97;5073561;28;20068;-69
2022/12/17 17:51:19;;;;;;;64.28;39.05;;;;;;;10.76;100.00;99881.84;5055399;28;20032;-70
2022/12/17 17:53:46;;;;;;;71.68;42.67;;;;;;;10.96;100.00;99899.03;5074455;28;20495;-70
2022/12/17 17:56:17;;;;;;;60.67;37.33;;;;;;;10.66;100.00;99842.34;5056304;28;20422;-70
2022/12/17 17:58:48;;;;;;;67.88;40.92;;;;;;;11.25;100.00;99948.16;5056076;28;20033;-71
2022/12/17 18:01:17;;;;;;;78.43;44.10;;;;;;;10.66;100.00;99856.75;5073961;28;20049;-72
2022/12/17 18:03:43;;;;;;;72.40;44.10;;;;;;;10.87;100.00;99869.66;5073972;28;20063;-71
2022/12/17 18:06:12;;;;;;;75.57;46.17;;;;;;;10.43;100.00;99776.13;5074442;28;20086;-71
2022/12/17 18:08:38;;;;;;;77.50;47.50;;;;;;;10.65;100.00;99822.88;5074357;28;20032;-71
2022/12/17 18:11:07;;;;;;;77.38;44.83;;;;;;;11.12;100.00;99910.41;5074018;28;20056;-71
2022/12/17 18:16:17;;;;;;;74.80;43.78;;;;;;;11.02;100.00;99886.97;5073875;28;20064;-72
2022/12/17 18:18:43;;;;;;;83.97;45.80;;;;;;;11.14;100.00;99888.31;5055874;28;20036;-71
2022/12/17 18:21:12;;;;;;;84.68;46.45;;;;;;;10.56;100.00;99802.81;5073980;28;20024;-71
2022/12/17 18:23:38;;;;;;;83.97;45.05;;;;;;;10.75;100.00;99838.69;5073777;28;20041;-72
2022/12/17 18:26:05;;;;;;;76.82;44.05;;;;;;;11.19;100.00;99881.38;5073311;28;20085;-71
2022/12/17 18:28:30;;;;;;;73.03;42.45;;;;;;;11.05;100.00;99843.63;5073441;28;20051;-71
2022/12/17 18:30:56;;;;;;;81.15;49.80;;;;;;;11.14;100.00;99848.44;5073632;28;20028;-72
2022/12/17 18:33:21;;;;;;;88.47;52.65;;;;;;;10.50;100.00;99741.22;5073186;28;20035;-70
2022/12/17 18:35:46;;;;;;;107.18;61.40;;;;;;;10.83;100.00;99816.41;5055833;28;20032;-71
2022/12/17 18:38:12;;;;;;;97.85;56.38;;;;;;;11.25;100.00;99879.44;5055056;28;20032;-70
2022/12/17 18:40:37;;;;;;;87.68;52.65;;;;;;;11.40;100.00;99908.66;5073311;28;20020;-71
2022/12/17 18:45:48;;;;;;;80.82;50.08;;;;;;;11.11;100.00;99838.34;5072172;28;20422;-70
2022/12/17 18:48:13;;;;;;;74.82;46.78;;;;;;;11.23;100.00;99852.41;5073427;28;20024;-71
2022/12/17 18:50:38;;;;;;;65.05;42.97;;;;;;;11.68;100.00;99911.16;5072446;28;20020;-70
2022/12/17 18:53:04;;;;;;;67.32;43.53;;;;;;;11.70;100.00;99910.25;5072996;28;20040;-70
2022/12/17 18:55:29;;;;;;;69.97;45.13;;;;;;;11.25;100.00;99897.25;5054855;28;20477;-70
2022/12/17 18:57:55;;;;;;;66.97;45.30;;;;;;;11.32;100.00;99949.63;5071915;28;20040;-70
2022/12/17 19:00:20;;;;;;;66.93;40.25;;;;;;;11.11;100.00;99968.09;5072928;28;20120;-70
2022/12/17 19:02:45;;;;;;;65.63;39.78;;;;;;;10.90;100.00;99920.41;5072386;28;20052;-70
2022/12/17 19:05:11;;;;;;;77.47;50.08;;;;;;;10.80;100.00;99946.16;5072595;28;20513;-69
2022/12/17 19:07:36;;;;;;;71.53;43.38;;;;;;;10.90;100.00;100001.81;5054442;28;20392;-71
2022/12/17 19:10:02;;;;;;;70.63;38.58;;;;;;;10.62;100.00;100022.97;5072723;28;20506;-69
2022/12/17 19:12:28;;;;;;;70.80;38.92;;;;;;;10.08;100.00;99918.56;5054380;28;20165;-70
2022/12/17 19:14:53;;;;;;;74.15;40.50;;;;;;;10.84;100.00;100035.03;5072438;28;20024;-70
2022/12/17 19:17:19;;;;;;;65.85;38.10;;;;;;;10.86;100.00;100052.78;5054369;28;20033;-70
2022/12/17 19:19:44;;;;;;;66.90;38.15;;;;;;;10.86;100.00;100037.53;5072665;28;20035;-70
2022/12/17 19:22:09;;;;;;;70.45;40.13;;;;;;;10.74;100.00;100012.44;5072227;28;20028;-69
2022/12/17 19:24:35;;;;;;;75.70;41.22;;;;;;;10.89;100.00;100045.94;5072083;28;20029;-70
2022/12/17 19:27:00;;;;;;;82.95;44.83;;;;;;;10.84;100.00;100057.09;5072260;28;20476;-70
2022/12/17 19:29:26;;;;;;;86.70;44.67;;;;;;;10.34;100.00;99979.66;5054222;28;20050;-69
2022/12/17 19:31:51;;;;;;;89.40;45.70;;;;;;;10.38;100.00;99956.69;5071945;28;20032;-70
2022/12/17 19:34:18;;;;;;;85.35;44.13;;;;;;;10.90;100.00;100069.63;5071444;28;20032;-70
2022/12/17 19:36:44;;;;;;;91.90;47.72;;;;;;;10.50;100.00;100005.53;5072240;28;20052;-70
2022/12/17 19:39:12;;;;;;;96.38;49.75;;;;;;;10.83;100.00;100075.78;5053924;28;20120;-70
2022/12/17 19:41:38;;;;;;;98.22;50.60;;;;;;;10.90;100.00;100070.47;5071490;28;20455;-69
2022/12/17 19:44:06;;;;;;;92.57;49.38;;;;;;;10.86;100.00;100070.59;5072161;28;20032;-70
2022/12/17 19:46:33;;;;;;;100.05;49.92;;;;;;;10.48;100.00;100007.28;5053916;28;20070;-69
2022/12/17 19:48:58;;;;;;;94.00;50.97;;;;;;;10.70;100.00;100067.63;5071828;28;20075;-70
2022/12/17 19:51:26;;;;;;;98.38;55.40;;;;;;;10.58;100.00;100039.19;5071646;28;20040;-70
2022/12/17 19:53:53;;;;;;;96.20;49.10;;;;;;;10.54;100.00;100007.09;5053042;28;20503;-70
2022/12/17 19:56:24;;;;;;;110.35;48.72;;;;;;;10.40;100.00;99987.13;5071117;28;20024;-69
2022/12/17 19:58:53;;;;;;;105.93;49.28;;;;;;;10.57;100.00;100022.25;5072115;28;20039;-69
2022/12/17 20:01:21;;;;;;;98.85;47.03;;;;;;;10.77;100.00;100074.25;5072053;28;20427;-69
2022/12/17 20:03:47;;;;;;;140.38;72.07;;;;;;;10.45;100.00;99995.47;5071858;28;20086;-70
2022/12/17 20:06:15;;;;;;;120.57;56.78;;;;;;;10.84;100.00;100047.75;5070199;28;20056;-70
2022/12/17 20:08:40;;;;;;;119.47;53.28;;;;;;;10.66;100.00;100038.09;5071265;28;20544;-70
2022/12/17 20:13:58;;;;;;;120.10;47.95;;;;;;;10.54;100.00;99996.94;5071008;28;20185;-70
2022/12/17 20:16:23;;;;;;;131.95;52.47;;;;;;;10.87;100.00;100044.31;5071800;28;20081;-70
2022/12/17 20:18:49;;;;;;;124.47;52.92;;;;;;;10.03;100.00;99883.13;5071437;28;20032;-69
2022/12/17 20:21:15;;;;;;;124.80;53.97;;;;;;;10.87;100.00;100037.50;5071077;28;20065;-70
2022/12/17 20:23:40;;;;;;;124.47;53.30;;;;;;;10.85;100.00;100039.25;5070824;28;20060;-70
2022/12/17 20:26:09;;;;;;;128.27;55.33;;;;;;;10.88;100.00;100030.69;5070345;28;20079;-70
2022/12/17 20:28:34;;;;;;;148.35;58.10;;;;;;;10.33;100.00;99933.13;5070790;28;20553;-70
2022/12/17 20:31:01;;;;;;;140.07;55.80;;;;;;;10.78;100.00;99989.44;5071122;28;20033;-70
2022/12/17 20:33:27;;;;;;;121.03;53.33;;;;;;;10.07;100.00;99866.09;5070460;28;20475;-70
2022/12/17 20:35:52;;;;;;;133.75;51.95;;;;;;;10.82;100.00;99998.66;5052559;28;20043;-70
2022/12/17 20:38:18;;;;;;;111.57;49.75;;;;;;;10.54;100.00;99954.53;5052798;28;20028;-70
2022/12/17 20:40:44;;;;;;;111.40;51.17;;;;;;;10.69;100.00;99991.41;5070600;28;20146;-71
2022/12/17 20:43:09;;;;;;;177.45;84.80;;;;;;;9.93;100.00;99873.25;5070928;28;20531;-70
2022/12/17 20:45:35;;;;;;;237.18;99.00;;;;;;;10.22;100.00;99949.53;5071003;28;20553;-69
2022/12/17 20:48:00;;;;;;;151.57;76.47;;;;;;;10.15;100.00;99913.28;5070416;28;20032;-70
2022/12/17 20:50:26;;;;;;;130.07;65.97;;;;;;;10.89;100.00;100037.47;5070625;28;20066;-70
2022/12/17 20:52:52;;;;;;;134.93;63.35;;;;;;;10.92;100.00;100038.19;5070532;28;20111;-70
2022/12/17 20:55:18;;;;;;;121.90;59.83;;;;;;;10.78;100.00;100021.66;5070027;28;20510;-69
2022/12/17 20:57:43;;;;;;;109.43;56.70;;;;;;;10.57;100.00;99967.19;5070487;28;20506;-70
2022/12/17 21:00:09;;;;;;;109.70;58.33;;;;;;;10.93;100.00;100041.59;5051864;28;20028;-70
2022/12/17 21:02:35;;;;;;;110.40;59.65;;;;;;;11.03;100.00;100043.00;5048186;28;20051;-71
2022/12/17 21:05:01;;;;;;;115.05;57.75;;;;;;;10.79;100.00;100010.63;5049705;28;20111;-71
2022/12/17 21:07:26;;;;;;;104.03;55.60;;;;;;;10.75;100.00;100026.84;5049608;28;20574;-71
2022/12/17 21:09:52;;;;;;;105.85;56.08;;;;;;;10.44;100.00;99948.88;5032064;28;20029;-70
2022/12/17 21:12:17;;;;;;;111.78;57.70;;;;;;;10.31;100.00;99967.06;5050356;28;20483;-71
2022/12/17 21:14:43;;;;;;;95.60;54.92;;;;;;;11.00;100.00;100073.59;5032329;28;20052;-71
2022/12/17 21:17:08;;;;;;;115.20;57.28;;;;;;;10.83;100.00;100045.25;5050555;28;20525;-69
2022/12/17 21:19:34;;;;;;;111.47;54.38;;;;;;;10.79;100.00;100021.63;5050010;28;20056;-69
2022/12/17 21:21:59;;;;;;;112.95;53.50;;;;;;;10.85;100.00;100035.88;5048480;28;20032;-69
2022/12/17 21:24:25;;;;;;;93.95;49.72;;;;;;;10.93;100.00;100042.44;5050490;28;20037;-69
2022/12/17 21:26:50;;;;;;;101.53;50.05;;;;;;;10.20;100.00;99933.50;5048846;28;20056;-70
2022/12/17 21:29:17;;;;;;;82.88;45.03;;;;;;;10.96;100.00;100049.97;5050018;28;20423;-70
2022/12/17 21:31:47;;;;;;;88.20;45.97;;;;;;;10.58;100.00;100040.00;5048563;28;20029;-70
2022/12/17 21:34:16;;;;;;;92.20;47.50;;;;;;;10.68;100.00;100087.19;5048654;28;20569;-69
2022/12/17 21:36:42;;;;;;;78.05;44.88;;;;;;;10.43;100.00;100017.56;5028954;28;20416;-70
2022/12/17 21:39:10;;;;;;;78.53;43.15;;;;;;;10.76;100.00;100090.34;5046437;28;20037;-69
2022/12/17 21:41:38;;;;;;;77.15;41.78;;;;;;;10.28;100.00;100000.19;5048984;28;20444;-70
2022/12/17 21:44:06;;;;;;;73.28;39.92;;;;;;;10.69;100.00;100066.00;5049702;28;20090;-69
2022/12/17 21:46:31;;;;;;;66.28;37.28;;;;;;;10.93;100.00;100111.09;5050348;28;20021;-69
2022/12/17 21:48:58;;;;;;;60.00;34.97;;;;;;;10.78;100.00;100098.78;5049531;28;20561;-70
2022/12/17 21:51:25;;;;;;;56.88;34.13;;;;;;;10.35;100.00;100017.75;5032612;28;20032;-69
2022/12/17 21:53:55;;;;;;;56.60;32.70;;;;;;;10.85;100.00;100129.97;5050155;28;20033;-69
2022/12/17 21:56:22;;;;;;;44.65;28.65;;;;;;;10.38;100.00;100034.63;5049630;28;20487;-70
2022/12/17 21:58:47;;;;;;;48.65;30.35;;;;;;;10.78;100.00;100125.91;5049885;28;20040;-70
2022/12/17 22:01:17;;;;;;;48.65;30.35;;;;;;;10.77;100.00;100132.72;5049841;28;20041;-70
2022/12/17 22:03:43;;;;;;;54.03;31.20;;;;;;;10.64;100.00;100089.84;5048481;28;20162;-69
2022/12/17 22:06:12;;;;;;;45.90;28.80;;;;;;;10.92;100.00;100121.28;5050317;28;20123;-69
2022/12/17 22:08:38;;;;;;;33.85;23.52;;;;;;;10.90;100.00;100120.50;5050495;28;20033;-71
2022/12/17 22:11:12;;;;;;;26.35;17.73;;;;;;;11.06;100.00;100103.94;5050218;28;20028;-70
2022/12/17 22:16:24;;;;;;;13.23;10.30;;;;;;;11.43;100.00;100081.66;5049897;28;20036;-69
2022/12/17 22:18:50;;;;;;;11.40;8.60;;;;;;;11.68;100.00;100084.31;5050138;28;20033;-70
2022/12/17 22:21:16;;;;;;;9.25;6.60;;;;;;;11.86;100.00;100055.75;5035748;28;20032;-70
2022/12/17 22:23:45;;;;;;;9.60;6.50;;;;;;;11.58;100.00;100024.34;5053636;28;20396;-70
2022/12/17 22:26:12;;;;;;;6.90;6.20;;;;;;;11.37;100.00;100012.28;5035407;28;20033;-69
2022/12/17 22:28:38;;;;;;;9.63;6.95;;;;;;;11.34;100.00;100036.94;5053439;28;20499;-70
2022/12/17 22:33:52;;;;;;;11.90;8.13;;;;;;;11.11;100.00;100025.78;5052899;28;20039;-70
2022/12/17 22:36:18;;;;;;;9.50;7.72;;;;;;;11.40;100.00;100083.44;5053640;28;20025;-70
2022/12/17 22:38:43;;;;;;;7.88;7.05;;;;;;;10.86;100.00;99984.13;5051340;28;20408;-70
2022/12/17 22:43:28;;;;;;;9.43;6.70;;;;;;;11.30;100.00;100037.94;5053232;28;20028;-70
2022/12/17 22:43:54;;;;;;;8.57;5.95;;;;;;;11.49;100.00;100061.09;5052805;28;20174;-70
2022/12/17 22:46:20;;;;;;;7.28;6.40;;;;;;;11.87;100.00;100106.63;5052148;28;20485;-71
2022/12/17 22:48:46;;;;;;;9.10;6.60;;;;;;;11.74;100.00;100097.72;5052449;28;20037;-70
2022/12/17 22:51:11;;;;;;;8.30;6.28;;;;;;;11.99;100.00;100116.44;5052565;28;20029;-70
2022/12/17 22:53:37;;;;;;;8.77;6.45;;;;;;;11.45;100.00;100012.88;5052966;28;20028;-70
2022/12/17 22:56:04;;;;;;;8.98;6.72;;;;;;;11.54;100.00;100058.41;5053479;28;20033;-71
2022/12/17 22:58:29;;;;;;;8.70;6.47;;;;;;;12.06;100.00;100135.72;5052550;28;20103;-70
2022/12/17 23:00:55;;;;;;;7.35;6.45;;;;;;;11.96;100.00;100125.91;5052459;28;20048;-70
2022/12/17 23:03:20;;;;;;;9.20;5.78;;;;;;;12.03;100.00;100130.75;5052710;28;20116;-70
2022/12/17 23:05:45;;;;;;;9.73;6.40;;;;;;;11.65;100.00;100079.28;5052373;28;20048;-70
2022/12/17 23:08:11;;;;;;;7.15;6.18;;;;;;;11.55;100.00;100057.56;5034918;28;20108;-68
2022/12/17 23:10:36;;;;;;;9.02;6.15;;;;;;;12.00;100.00;100168.25;5052802;28;20480;-71
2022/12/17 23:13:02;;;;;;;7.85;6.20;;;;;;;12.00;100.00;100158.03;5053102;28;20029;-73
2022/12/17 23:15:35;;;;;;;6.53;5.40;;;;;;;12.13;100.00;100142.31;5052940;28;20033;-72
2022/12/17 23:18:03;;;;;;;11.90;8.10;;;;;;;11.52;100.00;100061.03;5053078;28;20060;-71
2022/12/17 23:20:32;;;;;;;13.60;8.77;;;;;;;12.00;100.00;100174.16;5053406;28;20028;-72
2022/12/17 23:22:59;;;;;;;13.32;9.02;;;;;;;11.86;100.00;100155.94;5052240;28;20128;-72
2022/12/17 23:25:25;;;;;;;8.13;6.88;;;;;;;11.62;100.00;100082.78;5053790;28;20033;-72
2022/12/17 23:27:51;;;;;;;11.25;7.60;;;;;;;11.31;100.00;100071.81;5051635;28;20028;-72
2022/12/17 23:30:17;;;;;;;10.52;7.47;;;;;;;11.05;100.00;100020.88;5051989;28;20029;-71
2022/12/17 23:32:43;;;;;;;8.25;6.75;;;;;;;12.04;100.00;100141.78;5052550;28;20426;-72
2022/12/17 23:35:10;;;;;;;8.63;7.07;;;;;;;12.06;100.00;100184.16;5052574;28;20086;-72
2022/12/17 23:37:36;;;;;;;9.50;7.03;;;;;;;11.48;100.00;100078.97;5052704;28;20254;-72
2022/12/17 23:40:03;;;;;;;8.70;6.88;;;;;;;12.24;100.00;100182.75;5051428;28;20154;-72
2022/12/17 23:42:28;;;;;;;11.60;7.63;;;;;;;12.41;100.00;100190.72;5052294;28;20040;-72
2022/12/17 23:44:53;;;;;;;7.50;6.70;;;;;;;12.48;100.00;100155.66;5051575;28;20029;-71
2022/12/17 23:47:19;;;;;;;8.00;6.72;;;;;;;12.62;100.00;100194.25;5052159;28;20125;-70
2022/12/17 23:49:44;;;;;;;9.57;6.55;;;;;;;12.60;100.00;100185.81;5051593;28;20079;-71
2022/12/17 23:52:10;;;;;;;8.85;6.65;;;;;;;12.16;100.00;100149.03;5052441;28;20036;-71
2022/12/17 23:54:35;;;;;;;8.20;6.60;;;;;;;12.69;100.00;100201.69;5052079;28;20033;-71
2022/12/17 23:57:01;;;;;;;8.05;6.70;;;;;;;11.98;100.00;100130.03;5052041;28;20171;-72
2022/12/17 23:59:26;;;;;;;9.63;6.43;;;;;;;12.22;100.00;100188.78;5051810;28;20468;-72
